Aérodrome :
LOGIN :

S'inscrire | Disclaimer

   EN    FR    IT 

 










Légende :    VFR   VFR Marginal   IFR   IFR Intensif   IFR Très Intensif
Visi : 
Plafond : 
>= 8 km
>= 3000ft
5 à 8 km
1000 à 3000 ft
1500m à 5 km
500 à 1000 ft
800 à 1500m
200 à 500 ft
< 800m
< 200 ft
Symboles :   Orages  Brouillard  Fortes neiges  Fortes précipitations  Vent > 20 kt
SIGMETs :   Divers  Orages  Givrage  Turbulence  Onde Orograph.  Cendres Volcan.







- Altitude de l'aérodrome : 1860 ft
- Code IATA : GRX


LEGR - Granada

DERNIER METAR :
  • 201530Z 24011KT 200V290 9999 FEW035 SCT050 13/08 Q1008

METARs EXPIRÉS :
  • 201500Z 27008KT 230V320 9999 VCSH FEW030 SCT040TCU BKN060 13/08 Q1008
  • 201430Z 26009KT 230V300 9999 FEW020 SCT040 BKN060 12/09 Q1008
  • 201400Z 29011KT 240V330 9999 FEW015 SCT025 BKN040 12/11 Q1007
  • 201330Z 28017G27KT 250V320 9999 FEW015 SCT030 BKN040 11/10 Q1007 RERA
  • 201311Z 28023G35KT 250V320 7000 -RA SCT020 BKN025 BKN030 11/10 Q1006 RERA
  • 201300Z 28012G25KT 240V340 2000 RA SCT015 BKN025 BKN030 12/11 Q1006
  • 201251Z 29006KT 240V320 2000 RA FEW015 SCT025 OVC030 12/11 Q1006
  • 201244Z 29005KT 260V320 4000 -RA FEW015 SCT025 BKN030 12/11 Q1005

TAF TAF LEGR
Valide du 20 à 15h jusqu'au 21 à 15h UTC


201400Z 2015/2115 27010KT 9999 SCT015 SCT025 TX14/2015Z TN06/2107Z
BECMG 2017/2020 17004KT
PROB30
TEMPO 2104/2114 4000 RA BR BKN010
Pas de NOTAMs connus pour ce terrain.



MET'MAP, la Météo Aéronautique d'un coup d'oeil ! - Copyright ORBIFLY Décembre 2007 - Disclaimer

ORBIFLY MET'MAP TEAM :

Programmation & Développement : Alexandra Zaïnal
Conception & Développement : Baudouin d'Aumeries
Co-Programmation & Développement : Marc-Olivier Méhu
Soutien technique & logistique : Manuel Goepfert

Contact : metmap@orbifly.com




SOURCES & CREDITS :

   NOAA